sensor_id;sensor_type;location;lat;lon;timestamp;P1;durP1;ratioP1;P2;durP2;ratioP2
38797;SDS011;24546;52.240;16.826;2023-03-01T00:03:01;90.22;;;38.20;;
38797;SDS011;24546;52.240;16.826;2023-03-01T00:08:02;90.93;;;41.05;;
38797;SDS011;24546;52.240;16.826;2023-03-01T00:13:03;71.63;;;33.53;;
38797;SDS011;24546;52.240;16.826;2023-03-01T00:18:05;80.07;;;35.15;;
38797;SDS011;24546;52.240;16.826;2023-03-01T00:23:07;76.65;;;34.88;;
38797;SDS011;24546;52.240;16.826;2023-03-01T00:28:07;68.28;;;29.55;;
38797;SDS011;24546;52.240;16.826;2023-03-01T00:33:09;89.68;;;31.15;;
38797;SDS011;24546;52.240;16.826;2023-03-01T00:38:10;63.05;;;28.77;;
38797;SDS011;24546;52.240;16.826;2023-03-01T00:43:11;57.40;;;27.02;;
38797;SDS011;24546;52.240;16.826;2023-03-01T00:48:12;59.35;;;28.60;;
38797;SDS011;24546;52.240;16.826;2023-03-01T00:53:13;57.17;;;26.77;;
38797;SDS011;24546;52.240;16.826;2023-03-01T00:58:14;55.70;;;28.33;;
38797;SDS011;24546;52.240;16.826;2023-03-01T01:03:15;58.53;;;29.85;;
38797;SDS011;24546;52.240;16.826;2023-03-01T01:08:16;59.30;;;26.63;;
38797;SDS011;24546;52.240;16.826;2023-03-01T01:13:16;56.47;;;28.63;;
38797;SDS011;24546;52.240;16.826;2023-03-01T01:18:18;50.72;;;25.15;;
38797;SDS011;24546;52.240;16.826;2023-03-01T01:23:19;64.38;;;29.80;;
38797;SDS011;24546;52.240;16.826;2023-03-01T01:28:20;66.00;;;29.55;;
38797;SDS011;24546;52.240;16.826;2023-03-01T01:33:21;58.25;;;28.60;;
38797;SDS011;24546;52.240;16.826;2023-03-01T01:38:22;60.50;;;27.73;;
38797;SDS011;24546;52.240;16.826;2023-03-01T01:43:25;57.90;;;29.33;;
38797;SDS011;24546;52.240;16.826;2023-03-01T01:48:38;64.43;;;28.65;;
38797;SDS011;24546;52.240;16.826;2023-03-01T01:53:43;56.10;;;28.38;;
38797;SDS011;24546;52.240;16.826;2023-03-01T01:58:46;57.83;;;27.83;;
38797;SDS011;24546;52.240;16.826;2023-03-01T02:03:48;57.03;;;29.35;;
38797;SDS011;24546;52.240;16.826;2023-03-01T02:08:49;64.43;;;27.35;;
38797;SDS011;24546;52.240;16.826;2023-03-01T02:13:53;65.43;;;31.27;;
38797;SDS011;24546;52.240;16.826;2023-03-01T02:18:55;62.45;;;31.63;;
38797;SDS011;24546;52.240;16.826;2023-03-01T02:23:58;86.75;;;41.28;;
38797;SDS011;24546;52.240;16.826;2023-03-01T02:29:06;106.00;;;53.60;;
38797;SDS011;24546;52.240;16.826;2023-03-01T02:34:08;106.65;;;52.20;;
38797;SDS011;24546;52.240;16.826;2023-03-01T02:39:14;113.82;;;52.38;;
38797;SDS011;24546;52.240;16.826;2023-03-01T02:44:19;99.07;;;48.65;;
38797;SDS011;24546;52.240;16.826;2023-03-01T02:49:25;97.28;;;47.13;;
38797;SDS011;24546;52.240;16.826;2023-03-01T02:54:29;90.65;;;45.15;;
38797;SDS011;24546;52.240;16.826;2023-03-01T02:59:37;97.55;;;50.22;;
38797;SDS011;24546;52.240;16.826;2023-03-01T03:04:42;111.72;;;48.75;;
38797;SDS011;24546;52.240;16.826;2023-03-01T03:09:43;90.97;;;48.88;;
38797;SDS011;24546;52.240;16.826;2023-03-01T03:14:46;97.28;;;45.63;;
38797;SDS011;24546;52.240;16.826;2023-03-01T03:19:47;97.20;;;44.53;;
38797;SDS011;24546;52.240;16.826;2023-03-01T03:24:48;98.10;;;46.80;;
38797;SDS011;24546;52.240;16.826;2023-03-01T03:29:49;104.32;;;47.35;;
38797;SDS011;24546;52.240;16.826;2023-03-01T03:34:49;93.85;;;44.35;;
38797;SDS011;24546;52.240;16.826;2023-03-01T03:39:51;96.60;;;45.47;;
38797;SDS011;24546;52.240;16.826;2023-03-01T03:44:54;105.60;;;49.03;;
38797;SDS011;24546;52.240;16.826;2023-03-01T03:49:55;112.88;;;49.90;;
38797;SDS011;24546;52.240;16.826;2023-03-01T03:54:56;115.50;;;49.72;;
38797;SDS011;24546;52.240;16.826;2023-03-01T03:59:57;100.28;;;46.83;;
38797;SDS011;24546;52.240;16.826;2023-03-01T04:04:58;90.50;;;42.15;;
38797;SDS011;24546;52.240;16.826;2023-03-01T04:09:59;93.55;;;41.45;;
38797;SDS011;24546;52.240;16.826;2023-03-01T04:15:01;90.95;;;43.55;;
38797;SDS011;24546;52.240;16.826;2023-03-01T04:20:14;81.10;;;40.55;;
38797;SDS011;24546;52.240;16.826;2023-03-01T04:25:17;95.68;;;44.45;;
38797;SDS011;24546;52.240;16.826;2023-03-01T04:30:19;102.32;;;46.40;;
38797;SDS011;24546;52.240;16.826;2023-03-01T04:35:20;104.47;;;45.08;;
38797;SDS011;24546;52.240;16.826;2023-03-01T04:40:21;106.43;;;45.00;;
38797;SDS011;24546;52.240;16.826;2023-03-01T04:45:22;104.97;;;47.00;;
38797;SDS011;24546;52.240;16.826;2023-03-01T04:50:24;98.25;;;45.95;;
38797;SDS011;24546;52.240;16.826;2023-03-01T04:55:26;96.35;;;42.25;;
38797;SDS011;24546;52.240;16.826;2023-03-01T05:00:28;89.63;;;40.05;;
38797;SDS011;24546;52.240;16.826;2023-03-01T05:05:33;94.97;;;42.42;;
38797;SDS011;24546;52.240;16.826;2023-03-01T05:10:37;82.55;;;38.35;;
38797;SDS011;24546;52.240;16.826;2023-03-01T05:15:39;84.22;;;37.78;;
38797;SDS011;24546;52.240;16.826;2023-03-01T05:20:40;81.55;;;40.90;;
38797;SDS011;24546;52.240;16.826;2023-03-01T05:25:44;78.88;;;38.63;;
38797;SDS011;24546;52.240;16.826;2023-03-01T05:30:45;84.95;;;38.15;;
38797;SDS011;24546;52.240;16.826;2023-03-01T05:35:47;88.60;;;38.80;;
38797;SDS011;24546;52.240;16.826;2023-03-01T05:40:49;78.22;;;39.53;;
38797;SDS011;24546;52.240;16.826;2023-03-01T05:45:53;87.07;;;39.45;;
38797;SDS011;24546;52.240;16.826;2023-03-01T05:50:54;82.85;;;38.42;;
38797;SDS011;24546;52.240;16.826;2023-03-01T05:55:55;85.25;;;38.67;;
38797;SDS011;24546;52.240;16.826;2023-03-01T06:00:55;76.85;;;37.85;;
38797;SDS011;24546;52.240;16.826;2023-03-01T06:05:57;89.72;;;39.95;;
38797;SDS011;24546;52.240;16.826;2023-03-01T06:10:58;92.18;;;38.88;;
38797;SDS011;24546;52.240;16.826;2023-03-01T06:15:59;74.50;;;36.05;;
38797;SDS011;24546;52.240;16.826;2023-03-01T06:21:00;83.05;;;38.67;;
38797;SDS011;24546;52.240;16.826;2023-03-01T06:26:04;80.35;;;37.05;;
38797;SDS011;24546;52.240;16.826;2023-03-01T06:31:06;91.68;;;43.05;;
38797;SDS011;24546;52.240;16.826;2023-03-01T06:36:08;181.18;;;72.43;;
38797;SDS011;24546;52.240;16.826;2023-03-01T06:41:10;161.05;;;63.70;;
38797;SDS011;24546;52.240;16.826;2023-03-01T06:46:11;213.95;;;75.93;;
38797;SDS011;24546;52.240;16.826;2023-03-01T06:51:12;188.40;;;73.63;;
38797;SDS011;24546;52.240;16.826;2023-03-01T06:56:13;148.02;;;66.07;;
38797;SDS011;24546;52.240;16.826;2023-03-01T07:01:14;161.52;;;77.18;;
38797;SDS011;24546;52.240;16.826;2023-03-01T07:06:15;167.48;;;77.78;;
38797;SDS011;24546;52.240;16.826;2023-03-01T07:11:16;151.35;;;73.95;;
38797;SDS011;24546;52.240;16.826;2023-03-01T07:16:17;145.75;;;69.78;;
38797;SDS011;24546;52.240;16.826;2023-03-01T07:21:20;151.85;;;71.05;;
38797;SDS011;24546;52.240;16.826;2023-03-01T07:26:21;152.55;;;69.32;;
38797;SDS011;24546;52.240;16.826;2023-03-01T07:31:22;152.13;;;70.35;;
38797;SDS011;24546;52.240;16.826;2023-03-01T07:36:23;144.43;;;65.72;;
38797;SDS011;24546;52.240;16.826;2023-03-01T07:41:24;135.73;;;62.75;;
38797;SDS011;24546;52.240;16.826;2023-03-01T07:46:25;133.63;;;65.68;;
38797;SDS011;24546;52.240;16.826;2023-03-01T07:51:26;136.27;;;64.05;;
38797;SDS011;24546;52.240;16.826;2023-03-01T07:56:27;137.00;;;68.55;;
38797;SDS011;24546;52.240;16.826;2023-03-01T08:01:29;236.70;;;94.50;;
38797;SDS011;24546;52.240;16.826;2023-03-01T08:06:29;70.35;;;33.95;;
38797;SDS011;24546;52.240;16.826;2023-03-01T08:11:31;80.47;;;39.05;;
38797;SDS011;24546;52.240;16.826;2023-03-01T08:16:32;46.75;;;24.90;;
38797;SDS011;24546;52.240;16.826;2023-03-01T08:21:35;41.67;;;21.67;;
38797;SDS011;24546;52.240;16.826;2023-03-01T08:26:37;45.97;;;26.92;;
38797;SDS011;24546;52.240;16.826;2023-03-01T08:31:39;63.85;;;33.65;;
38797;SDS011;24546;52.240;16.826;2023-03-01T08:36:41;41.65;;;23.27;;
38797;SDS011;24546;52.240;16.826;2023-03-01T08:41:44;36.90;;;21.13;;
38797;SDS011;24546;52.240;16.826;2023-03-01T08:46:45;33.10;;;18.60;;
38797;SDS011;24546;52.240;16.826;2023-03-01T08:51:47;60.40;;;32.28;;
38797;SDS011;24546;52.240;16.826;2023-03-01T08:56:48;52.40;;;29.02;;
38797;SDS011;24546;52.240;16.826;2023-03-01T09:01:49;50.03;;;24.40;;
38797;SDS011;24546;52.240;16.826;2023-03-01T09:06:50;23.83;;;13.32;;
38797;SDS011;24546;52.240;16.826;2023-03-01T09:11:51;20.33;;;11.43;;
38797;SDS011;24546;52.240;16.826;2023-03-01T09:17:04;18.10;;;11.18;;
38797;SDS011;24546;52.240;16.826;2023-03-01T09:22:05;25.02;;;13.35;;
38797;SDS011;24546;52.240;16.826;2023-03-01T09:27:06;17.50;;;11.05;;
38797;SDS011;24546;52.240;16.826;2023-03-01T09:32:10;19.25;;;10.55;;
38797;SDS011;24546;52.240;16.826;2023-03-01T09:37:11;17.13;;;9.95;;
38797;SDS011;24546;52.240;16.826;2023-03-01T09:42:12;19.77;;;10.43;;
38797;SDS011;24546;52.240;16.826;2023-03-01T09:47:18;14.55;;;9.75;;
38797;SDS011;24546;52.240;16.826;2023-03-01T09:52:43;13.38;;;8.57;;
38797;SDS011;24546;52.240;16.826;2023-03-01T09:57:55;12.50;;;7.13;;
38797;SDS011;24546;52.240;16.826;2023-03-01T10:08:41;10.00;;;5.80;;
38797;SDS011;24546;52.240;16.826;2023-03-01T10:14:06;7.85;;;4.45;;
38797;SDS011;24546;52.240;16.826;2023-03-01T10:19:33;9.07;;;6.07;;
38797;SDS011;24546;52.240;16.826;2023-03-01T10:24:41;9.65;;;6.63;;
38797;SDS011;24546;52.240;16.826;2023-03-01T10:40:28;13.30;;;7.82;;
38797;SDS011;24546;52.240;16.826;2023-03-01T10:50:39;13.23;;;7.35;;
38797;SDS011;24546;52.240;16.826;2023-03-01T10:55:41;13.52;;;7.93;;
38797;SDS011;24546;52.240;16.826;2023-03-01T11:16:25;13.13;;;8.77;;
38797;SDS011;24546;52.240;16.826;2023-03-01T11:21:32;13.90;;;8.43;;
38797;SDS011;24546;52.240;16.826;2023-03-01T11:26:36;14.52;;;8.93;;
38797;SDS011;24546;52.240;16.826;2023-03-01T11:31:43;12.13;;;7.50;;
38797;SDS011;24546;52.240;16.826;2023-03-01T11:36:54;13.83;;;8.83;;
38797;SDS011;24546;52.240;16.826;2023-03-01T11:42:09;13.13;;;9.18;;
38797;SDS011;24546;52.240;16.826;2023-03-01T11:58:08;14.45;;;8.95;;
38797;SDS011;24546;52.240;16.826;2023-03-01T12:03:23;12.38;;;8.23;;
38797;SDS011;24546;52.240;16.826;2023-03-01T12:08:43;14.85;;;8.00;;
38797;SDS011;24546;52.240;16.826;2023-03-01T12:13:54;12.98;;;8.38;;
38797;SDS011;24546;52.240;16.826;2023-03-01T12:19:15;14.32;;;8.88;;
38797;SDS011;24546;52.240;16.826;2023-03-01T12:30:16;14.48;;;7.88;;
38797;SDS011;24546;52.240;16.826;2023-03-01T12:46:21;12.60;;;7.40;;
38797;SDS011;24546;52.240;16.826;2023-03-01T12:51:43;10.43;;;7.20;;
38797;SDS011;24546;52.240;16.826;2023-03-01T12:56:52;12.07;;;7.80;;
38797;SDS011;24546;52.240;16.826;2023-03-01T13:01:55;10.82;;;6.45;;
38797;SDS011;24546;52.240;16.826;2023-03-01T13:07:13;10.15;;;5.85;;
38797;SDS011;24546;52.240;16.826;2023-03-01T13:17:44;12.75;;;6.53;;
38797;SDS011;24546;52.240;16.826;2023-03-01T13:22:46;9.73;;;6.30;;
38797;SDS011;24546;52.240;16.826;2023-03-01T13:27:47;11.65;;;5.80;;
38797;SDS011;24546;52.240;16.826;2023-03-01T13:32:48;10.88;;;6.40;;
38797;SDS011;24546;52.240;16.826;2023-03-01T13:37:49;9.30;;;5.57;;
38797;SDS011;24546;52.240;16.826;2023-03-01T13:42:54;11.77;;;6.00;;
38797;SDS011;24546;52.240;16.826;2023-03-01T13:47:57;9.43;;;5.80;;
38797;SDS011;24546;52.240;16.826;2023-03-01T13:53:03;10.03;;;6.30;;
38797;SDS011;24546;52.240;16.826;2023-03-01T13:58:18;8.00;;;5.20;;
38797;SDS011;24546;52.240;16.826;2023-03-01T14:03:30;10.73;;;5.40;;
38797;SDS011;24546;52.240;16.826;2023-03-01T14:08:34;10.35;;;5.65;;
38797;SDS011;24546;52.240;16.826;2023-03-01T14:13:41;7.78;;;5.50;;
38797;SDS011;24546;52.240;16.826;2023-03-01T14:24:16;9.07;;;4.65;;
38797;SDS011;24546;52.240;16.826;2023-03-01T14:29:37;9.70;;;5.13;;
38797;SDS011;24546;52.240;16.826;2023-03-01T14:34:43;8.82;;;5.80;;
38797;SDS011;24546;52.240;16.826;2023-03-01T14:39:46;10.07;;;6.70;;
38797;SDS011;24546;52.240;16.826;2023-03-01T14:44:48;14.38;;;6.93;;
38797;SDS011;24546;52.240;16.826;2023-03-01T14:49:53;10.27;;;6.75;;
38797;SDS011;24546;52.240;16.826;2023-03-01T14:54:58;9.93;;;5.82;;
38797;SDS011;24546;52.240;16.826;2023-03-01T15:00:00;11.30;;;6.25;;
38797;SDS011;24546;52.240;16.826;2023-03-01T15:05:05;11.80;;;6.32;;
38797;SDS011;24546;52.240;16.826;2023-03-01T15:10:14;14.85;;;8.02;;
38797;SDS011;24546;52.240;16.826;2023-03-01T15:15:31;9.23;;;6.65;;
38797;SDS011;24546;52.240;16.826;2023-03-01T15:20:37;10.88;;;6.35;;
38797;SDS011;24546;52.240;16.826;2023-03-01T15:25:43;10.48;;;6.10;;
38797;SDS011;24546;52.240;16.826;2023-03-01T15:30:44;11.40;;;6.53;;
38797;SDS011;24546;52.240;16.826;2023-03-01T15:35:50;10.25;;;6.65;;
38797;SDS011;24546;52.240;16.826;2023-03-01T15:40:52;10.32;;;6.30;;
38797;SDS011;24546;52.240;16.826;2023-03-01T15:45:57;10.23;;;5.90;;
38797;SDS011;24546;52.240;16.826;2023-03-01T15:50:58;11.35;;;6.13;;
38797;SDS011;24546;52.240;16.826;2023-03-01T15:56:01;9.52;;;5.80;;
38797;SDS011;24546;52.240;16.826;2023-03-01T16:01:02;7.47;;;5.05;;
38797;SDS011;24546;52.240;16.826;2023-03-01T16:06:09;11.87;;;5.70;;
38797;SDS011;24546;52.240;16.826;2023-03-01T16:11:17;8.52;;;5.07;;
38797;SDS011;24546;52.240;16.826;2023-03-01T16:16:20;9.35;;;6.15;;
38797;SDS011;24546;52.240;16.826;2023-03-01T16:21:24;9.95;;;6.00;;
38797;SDS011;24546;52.240;16.826;2023-03-01T16:26:25;9.38;;;5.80;;
38797;SDS011;24546;52.240;16.826;2023-03-01T16:31:26;10.52;;;6.47;;
38797;SDS011;24546;52.240;16.826;2023-03-01T16:36:28;10.82;;;6.53;;
38797;SDS011;24546;52.240;16.826;2023-03-01T16:41:30;10.25;;;6.63;;
38797;SDS011;24546;52.240;16.826;2023-03-01T16:46:31;10.13;;;6.75;;
38797;SDS011;24546;52.240;16.826;2023-03-01T16:51:32;12.52;;;7.10;;
38797;SDS011;24546;52.240;16.826;2023-03-01T16:56:34;11.63;;;6.55;;
38797;SDS011;24546;52.240;16.826;2023-03-01T17:01:37;10.90;;;6.70;;
38797;SDS011;24546;52.240;16.826;2023-03-01T17:06:40;13.25;;;7.97;;
38797;SDS011;24546;52.240;16.826;2023-03-01T17:11:42;10.82;;;6.50;;
38797;SDS011;24546;52.240;16.826;2023-03-01T17:16:43;13.93;;;8.07;;
38797;SDS011;24546;52.240;16.826;2023-03-01T17:21:45;10.55;;;6.95;;
38797;SDS011;24546;52.240;16.826;2023-03-01T17:26:46;13.63;;;7.50;;
38797;SDS011;24546;52.240;16.826;2023-03-01T17:31:47;10.13;;;7.03;;
38797;SDS011;24546;52.240;16.826;2023-03-01T17:36:48;11.20;;;6.55;;
38797;SDS011;24546;52.240;16.826;2023-03-01T17:41:51;10.55;;;6.20;;
38797;SDS011;24546;52.240;16.826;2023-03-01T17:46:52;11.60;;;7.50;;
38797;SDS011;24546;52.240;16.826;2023-03-01T17:51:53;15.25;;;8.95;;
38797;SDS011;24546;52.240;16.826;2023-03-01T17:56:54;16.73;;;9.98;;
38797;SDS011;24546;52.240;16.826;2023-03-01T18:01:58;12.40;;;7.60;;
38797;SDS011;24546;52.240;16.826;2023-03-01T18:07:00;13.00;;;7.65;;
38797;SDS011;24546;52.240;16.826;2023-03-01T18:12:01;11.43;;;6.90;;
38797;SDS011;24546;52.240;16.826;2023-03-01T18:17:02;12.80;;;7.50;;
38797;SDS011;24546;52.240;16.826;2023-03-01T18:22:10;28.60;;;15.38;;
38797;SDS011;24546;52.240;16.826;2023-03-01T18:27:12;24.20;;;13.55;;
38797;SDS011;24546;52.240;16.826;2023-03-01T18:32:13;58.05;;;31.52;;
38797;SDS011;24546;52.240;16.826;2023-03-01T18:37:15;37.75;;;17.70;;
38797;SDS011;24546;52.240;16.826;2023-03-01T18:42:17;18.17;;;10.73;;
38797;SDS011;24546;52.240;16.826;2023-03-01T18:47:19;21.02;;;11.75;;
38797;SDS011;24546;52.240;16.826;2023-03-01T18:52:20;28.33;;;17.45;;
38797;SDS011;24546;52.240;16.826;2023-03-01T18:57:21;21.23;;;12.98;;
38797;SDS011;24546;52.240;16.826;2023-03-01T19:02:22;28.55;;;15.90;;
38797;SDS011;24546;52.240;16.826;2023-03-01T19:07:23;25.38;;;15.13;;
38797;SDS011;24546;52.240;16.826;2023-03-01T19:12:24;32.50;;;17.38;;
38797;SDS011;24546;52.240;16.826;2023-03-01T19:17:27;38.20;;;20.60;;
38797;SDS011;24546;52.240;16.826;2023-03-01T19:22:30;34.35;;;18.38;;
38797;SDS011;24546;52.240;16.826;2023-03-01T19:27:31;33.85;;;16.27;;
38797;SDS011;24546;52.240;16.826;2023-03-01T19:32:32;27.73;;;15.68;;
38797;SDS011;24546;52.240;16.826;2023-03-01T19:37:33;25.85;;;15.65;;
38797;SDS011;24546;52.240;16.826;2023-03-01T19:42:35;27.98;;;16.17;;
38797;SDS011;24546;52.240;16.826;2023-03-01T19:47:36;29.08;;;14.88;;
38797;SDS011;24546;52.240;16.826;2023-03-01T19:52:38;27.88;;;16.08;;
38797;SDS011;24546;52.240;16.826;2023-03-01T19:57:39;29.95;;;16.98;;
38797;SDS011;24546;52.240;16.826;2023-03-01T20:02:40;38.80;;;19.75;;
38797;SDS011;24546;52.240;16.826;2023-03-01T20:07:41;44.15;;;22.45;;
38797;SDS011;24546;52.240;16.826;2023-03-01T20:12:42;40.30;;;21.13;;
38797;SDS011;24546;52.240;16.826;2023-03-01T20:17:43;40.42;;;19.15;;
38797;SDS011;24546;52.240;16.826;2023-03-01T20:22:44;40.65;;;20.77;;
38797;SDS011;24546;52.240;16.826;2023-03-01T20:27:45;30.00;;;16.92;;
38797;SDS011;24546;52.240;16.826;2023-03-01T20:32:47;28.25;;;16.15;;
38797;SDS011;24546;52.240;16.826;2023-03-01T20:37:50;31.42;;;16.25;;
38797;SDS011;24546;52.240;16.826;2023-03-01T20:42:53;29.63;;;14.93;;
38797;SDS011;24546;52.240;16.826;2023-03-01T20:47:54;29.17;;;16.80;;
38797;SDS011;24546;52.240;16.826;2023-03-01T20:52:55;33.17;;;17.98;;
38797;SDS011;24546;52.240;16.826;2023-03-01T20:57:56;36.03;;;20.83;;
38797;SDS011;24546;52.240;16.826;2023-03-01T21:02:57;36.45;;;20.15;;
38797;SDS011;24546;52.240;16.826;2023-03-01T21:07:58;40.75;;;22.50;;
38797;SDS011;24546;52.240;16.826;2023-03-01T21:13:02;44.10;;;23.02;;
38797;SDS011;24546;52.240;16.826;2023-03-01T21:18:03;45.25;;;24.60;;
38797;SDS011;24546;52.240;16.826;2023-03-01T21:23:04;42.78;;;23.77;;
38797;SDS011;24546;52.240;16.826;2023-03-01T21:28:05;41.15;;;22.55;;
38797;SDS011;24546;52.240;16.826;2023-03-01T21:33:06;38.58;;;21.25;;
38797;SDS011;24546;52.240;16.826;2023-03-01T21:38:08;48.20;;;28.20;;
38797;SDS011;24546;52.240;16.826;2023-03-01T21:43:09;47.47;;;27.75;;
38797;SDS011;24546;52.240;16.826;2023-03-01T21:48:12;53.97;;;29.55;;
38797;SDS011;24546;52.240;16.826;2023-03-01T21:53:13;50.05;;;27.73;;
38797;SDS011;24546;52.240;16.826;2023-03-01T21:58:14;48.85;;;26.50;;
38797;SDS011;24546;52.240;16.826;2023-03-01T22:03:18;41.15;;;22.35;;
38797;SDS011;24546;52.240;16.826;2023-03-01T22:08:20;50.20;;;27.52;;
38797;SDS011;24546;52.240;16.826;2023-03-01T22:13:21;47.30;;;26.45;;
38797;SDS011;24546;52.240;16.826;2023-03-01T22:18:22;53.17;;;28.83;;
38797;SDS011;24546;52.240;16.826;2023-03-01T22:23:23;55.50;;;27.40;;
38797;SDS011;24546;52.240;16.826;2023-03-01T22:28:24;52.90;;;28.60;;
38797;SDS011;24546;52.240;16.826;2023-03-01T22:33:25;56.33;;;28.00;;
38797;SDS011;24546;52.240;16.826;2023-03-01T22:38:26;61.05;;;31.50;;
38797;SDS011;24546;52.240;16.826;2023-03-01T22:43:28;67.43;;;34.17;;
38797;SDS011;24546;52.240;16.826;2023-03-01T22:48:30;60.95;;;30.75;;
38797;SDS011;24546;52.240;16.826;2023-03-01T22:53:31;68.28;;;34.88;;
38797;SDS011;24546;52.240;16.826;2023-03-01T22:58:32;69.53;;;33.42;;
38797;SDS011;24546;52.240;16.826;2023-03-01T23:03:33;65.35;;;31.23;;
38797;SDS011;24546;52.240;16.826;2023-03-01T23:08:34;61.17;;;31.40;;
38797;SDS011;24546;52.240;16.826;2023-03-01T23:13:36;81.80;;;36.05;;
38797;SDS011;24546;52.240;16.826;2023-03-01T23:18:37;93.93;;;41.97;;
38797;SDS011;24546;52.240;16.826;2023-03-01T23:23:39;80.60;;;39.05;;
38797;SDS011;24546;52.240;16.826;2023-03-01T23:28:40;74.97;;;37.35;;
38797;SDS011;24546;52.240;16.826;2023-03-01T23:33:41;68.43;;;35.28;;
38797;SDS011;24546;52.240;16.826;2023-03-01T23:38:45;86.60;;;39.70;;
38797;SDS011;24546;52.240;16.826;2023-03-01T23:43:48;80.43;;;38.58;;
38797;SDS011;24546;52.240;16.826;2023-03-01T23:48:51;82.38;;;38.58;;
38797;SDS011;24546;52.240;16.826;2023-03-01T23:53:54;100.38;;;45.95;;
38797;SDS011;24546;52.240;16.826;2023-03-01T23:59:00;91.80;;;45.53;;
